Time;durP1;ratioP1;P1;durP2;ratioP2;P2;SDS_P1;SDS_P2;PMS_P1;PMS_P2;Temp;Humidity;BMP_temperature;BMP_pressure;BME280_temperature;BME280_humidity;BME280_pressure;Samples;Min_cycle;Max_cycle;Signal;HPM_P1;HPM_P2
2022/12/10 00:01:17;;;;;;;40.00;22.08;;;;;;;;;;5094480;28;20195;-64
2022/12/10 00:03:44;;;;;;;33.78;18.90;;;;;;;;;;5094415;28;20199;-64
2022/12/10 00:06:12;;;;;;;32.67;21.05;;;;;;;;;;5094123;28;20199;-64
2022/12/10 00:08:39;;;;;;;37.05;19.73;;;;;;;;;;5094427;28;20222;-65
2022/12/10 00:11:08;;;;;;;32.10;21.23;;;;;;;;;;5094502;28;20198;-64
2022/12/10 00:13:35;;;;;;;30.90;19.33;;;;;;;;;;5094371;28;20202;-64
2022/12/10 00:16:03;;;;;;;32.47;20.35;;;;;;;;;;5094204;28;20190;-64
2022/12/10 00:18:31;;;;;;;31.50;20.60;;;;;;;;;;5094350;28;20224;-64
2022/12/10 00:20:58;;;;;;;36.70;20.77;;;;;;;;;;5094315;28;20197;-64
2022/12/10 00:23:25;;;;;;;33.58;20.70;;;;;;;;;;5093783;28;20204;-64
2022/12/10 00:25:53;;;;;;;35.15;21.42;;;;;;;;;;5094449;28;20198;-64
2022/12/10 00:28:20;;;;;;;29.58;18.70;;;;;;;;;;5094047;28;20200;-65
2022/12/10 00:30:47;;;;;;;27.08;18.17;;;;;;;;;;5093824;28;20203;-64
2022/12/10 00:33:15;;;;;;;26.55;18.77;;;;;;;;;;5093738;28;20656;-65
2022/12/10 00:35:43;;;;;;;31.67;18.38;;;;;;;;;;5094090;28;20554;-64
2022/12/10 00:38:10;;;;;;;30.40;19.13;;;;;;;;;;5093983;28;20194;-64
2022/12/10 00:40:37;;;;;;;35.53;20.10;;;;;;;;;;5093684;28;20222;-65
2022/12/10 00:43:05;;;;;;;27.20;18.85;;;;;;;;;;5093967;28;20690;-64
2022/12/10 00:45:32;;;;;;;31.48;20.77;;;;;;;;;;5093470;28;20563;-64
2022/12/10 00:47:59;;;;;;;31.63;19.80;;;;;;;;;;5093351;28;20290;-65
2022/12/10 00:50:26;;;;;;;33.15;20.83;;;;;;;;;;5093527;28;20199;-65
2022/12/10 00:52:55;;;;;;;32.90;20.92;;;;;;;;;;5093083;28;20294;-64
2022/12/10 00:55:22;;;;;;;33.60;21.67;;;;;;;;;;5093371;28;20195;-64
2022/12/10 00:57:49;;;;;;;39.10;24.48;;;;;;;;;;5093398;28;20200;-64
2022/12/10 01:00:16;;;;;;;34.22;20.67;;;;;;;;;;5093147;28;20220;-64
2022/12/10 01:02:44;;;;;;;37.63;22.20;;;;;;;;;;5093342;28;20250;-64
2022/12/10 01:05:11;;;;;;;34.80;21.73;;;;;;;;;;5093148;28;20201;-64
2022/12/10 01:07:38;;;;;;;36.40;22.73;;;;;;;;;;5093504;28;20307;-64
2022/12/10 01:10:07;;;;;;;29.80;18.42;;;;;;;;;;5092716;28;20682;-64
2022/12/10 01:12:34;;;;;;;23.95;15.93;;;;;;;;;;5093534;28;20198;-64
2022/12/10 01:15:01;;;;;;;23.88;15.43;;;;;;;;;;5093077;28;20191;-65
2022/12/10 01:17:28;;;;;;;24.83;15.93;;;;;;;;;;5093287;28;20194;-65
2022/12/10 01:19:55;;;;;;;23.75;15.32;;;;;;;;;;5096214;28;20220;-64
2022/12/10 01:22:23;;;;;;;26.55;16.83;;;;;;;;;;5097364;28;20220;-64
2022/12/10 01:24:50;;;;;;;29.48;18.15;;;;;;;;;;5097289;28;20292;-64
2022/12/10 01:27:19;;;;;;;23.50;17.15;;;;;;;;;;5097724;28;20558;-64
2022/12/10 01:29:46;;;;;;;28.05;18.63;;;;;;;;;;5097523;28;20205;-65
2022/12/10 01:32:13;;;;;;;26.17;16.55;;;;;;;;;;5097192;28;20197;-65
2022/12/10 01:34:41;;;;;;;28.33;16.20;;;;;;;;;;5096784;28;20191;-65
2022/12/10 01:37:08;;;;;;;25.17;15.73;;;;;;;;;;5096794;28;20195;-66
2022/12/10 01:39:35;;;;;;;22.58;13.88;;;;;;;;;;5096519;28;20225;-65
2022/12/10 01:42:02;;;;;;;22.05;14.52;;;;;;;;;;5096923;28;20694;-64
2022/12/10 01:44:48;;;;;;;21.35;15.02;;;;;;;;;;5096527;28;20738;-65
2022/12/10 01:47:16;;;;;;;20.58;15.15;;;;;;;;;;5096860;28;20195;-64
2022/12/10 01:49:43;;;;;;;29.58;17.38;;;;;;;;;;5096675;28;20201;-64
2022/12/10 01:52:13;;;;;;;19.00;13.50;;;;;;;;;;5096697;28;20202;-65
2022/12/10 01:54:41;;;;;;;21.85;14.35;;;;;;;;;;5096977;28;20202;-64
2022/12/10 01:57:09;;;;;;;25.50;16.05;;;;;;;;;;5096370;28;20199;-64
2022/12/10 01:59:37;;;;;;;22.45;15.23;;;;;;;;;;5096743;28;20224;-65
2022/12/10 02:02:09;;;;;;;27.35;15.15;;;;;;;;;;5096837;28;20556;-65
2022/12/10 02:04:45;;;;;;;24.27;14.73;;;;;;;;;;5096533;28;20182;-64
2022/12/10 02:07:15;;;;;;;24.08;13.57;;;;;;;;;;5096305;28;20190;-64
2022/12/10 02:09:44;;;;;;;24.98;14.57;;;;;;;;;;5096201;28;20193;-64
2022/12/10 02:12:13;;;;;;;23.25;15.43;;;;;;;;;;5096609;28;20195;-64
2022/12/10 02:14:45;;;;;;;26.73;14.52;;;;;;;;;;5096222;28;20224;-64
2022/12/10 02:17:14;;;;;;;23.30;14.70;;;;;;;;;;5096258;28;20194;-64
2022/12/10 02:19:58;;;;;;;26.35;16.48;;;;;;;;;;5095705;28;20216;-65
2022/12/10 02:22:27;;;;;;;24.75;17.10;;;;;;;;;;5096805;28;20188;-64
2022/12/10 02:24:56;;;;;;;21.25;15.15;;;;;;;;;;5095683;28;20200;-64
2022/12/10 02:27:26;;;;;;;16.92;13.18;;;;;;;;;;5095758;28;20285;-64
2022/12/10 02:29:56;;;;;;;26.27;15.77;;;;;;;;;;5094656;28;20197;-64
2022/12/10 02:32:25;;;;;;;21.73;14.07;;;;;;;;;;5096215;28;20196;-64
2022/12/10 02:34:53;;;;;;;22.38;14.00;;;;;;;;;;5095520;28;20202;-64
2022/12/10 02:37:24;;;;;;;20.73;14.25;;;;;;;;;;5095674;28;20652;-64
2022/12/10 02:39:52;;;;;;;22.35;15.43;;;;;;;;;;5096068;28;20541;-64
2022/12/10 02:42:20;;;;;;;23.40;15.05;;;;;;;;;;5095422;28;20227;-64
2022/12/10 02:44:49;;;;;;;19.80;14.10;;;;;;;;;;5095374;28;20204;-65
2022/12/10 02:47:18;;;;;;;26.30;15.35;;;;;;;;;;5095662;28;20205;-64
2022/12/10 02:49:46;;;;;;;23.55;15.40;;;;;;;;;;5095244;28;20202;-65
2022/12/10 02:52:15;;;;;;;25.33;16.15;;;;;;;;;;5095261;28;20644;-64
2022/12/10 02:54:43;;;;;;;23.85;16.17;;;;;;;;;;5095146;28;20205;-64
2022/12/10 02:57:16;;;;;;;23.25;15.40;;;;;;;;;;5095388;28;20206;-64
2022/12/10 02:59:49;;;;;;;22.92;16.65;;;;;;;;;;5095239;28;20226;-64
2022/12/10 03:02:19;;;;;;;22.95;16.10;;;;;;;;;;5095163;28;20180;-64
2022/12/10 03:04:48;;;;;;;24.52;15.85;;;;;;;;;;5094984;28;20192;-64
2022/12/10 03:07:18;;;;;;;22.98;14.77;;;;;;;;;;5095006;28;20209;-64
2022/12/10 03:09:47;;;;;;;28.33;16.65;;;;;;;;;;5095494;28;20221;-64
2022/12/10 03:12:18;;;;;;;25.00;14.55;;;;;;;;;;5095424;28;20524;-64
2022/12/10 03:14:46;;;;;;;23.50;17.63;;;;;;;;;;5094980;28;20180;-64
2022/12/10 03:17:15;;;;;;;25.35;16.90;;;;;;;;;;5094715;28;20196;-64
2022/12/10 03:19:46;;;;;;;23.63;13.82;;;;;;;;;;5094990;28;20218;-64
2022/12/10 03:22:14;;;;;;;21.70;14.85;;;;;;;;;;5094747;28;20187;-64
2022/12/10 03:24:42;;;;;;;22.40;15.43;;;;;;;;;;5095199;28;20205;-64
2022/12/10 03:27:10;;;;;;;20.90;15.05;;;;;;;;;;5094889;28;20195;-64
2022/12/10 03:29:39;;;;;;;25.80;17.40;;;;;;;;;;5094585;28;20213;-64
2022/12/10 03:32:07;;;;;;;23.45;17.30;;;;;;;;;;5094812;28;20280;-64
2022/12/10 03:34:34;;;;;;;20.67;14.85;;;;;;;;;;5095155;28;20196;-64
2022/12/10 03:37:03;;;;;;;24.20;15.50;;;;;;;;;;5094666;28;20196;-65
2022/12/10 03:39:31;;;;;;;26.05;16.17;;;;;;;;;;5094246;28;20191;-64
2022/12/10 03:41:58;;;;;;;23.35;16.98;;;;;;;;;;5093541;28;20667;-64
2022/12/10 03:44:29;;;;;;;26.95;16.60;;;;;;;;;;5094591;28;20301;-65
2022/12/10 03:46:56;;;;;;;22.58;16.50;;;;;;;;;;5094484;28;20200;-64
2022/12/10 03:49:23;;;;;;;29.50;19.42;;;;;;;;;;5094823;28;20194;-64
2022/12/10 03:51:50;;;;;;;31.98;19.38;;;;;;;;;;5094478;28;20283;-64
2022/12/10 03:54:19;;;;;;;32.38;20.85;;;;;;;;;;5094156;28;20196;-65
2022/12/10 03:56:46;;;;;;;25.90;18.73;;;;;;;;;;5094255;28;20221;-64
2022/12/10 03:59:13;;;;;;;28.85;19.58;;;;;;;;;;5094328;28;20206;-64
2022/12/10 04:01:41;;;;;;;28.58;21.73;;;;;;;;;;5093793;28;20250;-64
2022/12/10 04:04:08;;;;;;;29.80;21.15;;;;;;;;;;5093876;28;20198;-64
2022/12/10 04:06:35;;;;;;;27.88;19.10;;;;;;;;;;5094127;28;20580;-64
2022/12/10 04:09:02;;;;;;;27.25;20.48;;;;;;;;;;5093852;28;20196;-64
2022/12/10 04:11:31;;;;;;;29.30;20.63;;;;;;;;;;5094109;28;20200;-64
2022/12/10 04:16:43;;;;;;;32.42;21.50;;;;;;;;;;5093687;28;20185;-64
2022/12/10 04:19:11;;;;;;;28.55;18.90;;;;;;;;;;5093626;28;20199;-65
2022/12/10 04:27:12;;;;;;;31.30;21.00;;;;;;;;;;5073192;28;20180;-64
2022/12/10 04:29:40;;;;;;;32.28;21.67;;;;;;;;;;5073765;28;20628;-64
2022/12/10 04:32:08;;;;;;;32.50;22.98;;;;;;;;;;5073713;28;20214;-64
2022/12/10 04:34:35;;;;;;;30.98;22.85;;;;;;;;;;5073413;28;20197;-64
2022/12/10 04:37:03;;;;;;;34.28;22.83;;;;;;;;;;5072963;28;20202;-64
2022/12/10 04:39:30;;;;;;;30.10;22.13;;;;;;;;;;5073426;28;20206;-65
2022/12/10 04:41:58;;;;;;;36.85;24.45;;;;;;;;;;5073145;28;20245;-64
2022/12/10 04:44:26;;;;;;;36.05;21.23;;;;;;;;;;5073353;28;20709;-64
2022/12/10 04:46:53;;;;;;;29.65;21.63;;;;;;;;;;5073228;28;20194;-64
2022/12/10 04:49:20;;;;;;;37.15;23.52;;;;;;;;;;5073235;28;20205;-64
2022/12/10 04:51:48;;;;;;;32.70;22.02;;;;;;;;;;5071483;28;20204;-64
2022/12/10 04:54:15;;;;;;;38.72;23.52;;;;;;;;;;5070998;28;20561;-64
2022/12/10 04:56:43;;;;;;;31.60;21.27;;;;;;;;;;5072158;28;20238;-64
2022/12/10 04:59:11;;;;;;;31.08;21.50;;;;;;;;;;5072440;28;20200;-64
2022/12/10 05:01:39;;;;;;;28.75;22.00;;;;;;;;;;5072309;28;20225;-65
2022/12/10 05:04:08;;;;;;;37.42;23.70;;;;;;;;;;5072559;28;20194;-64
2022/12/10 05:06:35;;;;;;;34.25;22.90;;;;;;;;;;5072586;28;20535;-64
2022/12/10 05:09:02;;;;;;;32.25;23.13;;;;;;;;;;5072376;28;20215;-64
2022/12/10 05:11:30;;;;;;;30.17;21.60;;;;;;;;;;5072160;28;20198;-64
2022/12/10 05:13:58;;;;;;;33.22;23.55;;;;;;;;;;5072171;28;20653;-64
2022/12/10 05:16:26;;;;;;;32.63;22.60;;;;;;;;;;5072547;28;20195;-64
2022/12/10 05:18:56;;;;;;;30.48;22.08;;;;;;;;;;5072421;28;20195;-64
2022/12/10 05:21:23;;;;;;;39.92;25.00;;;;;;;;;;5083146;28;20215;-64
2022/12/10 05:23:51;;;;;;;32.55;23.23;;;;;;;;;;5092165;28;20203;-63
2022/12/10 05:26:19;;;;;;;38.55;25.38;;;;;;;;;;5092377;28;20267;-63
2022/12/10 05:28:47;;;;;;;33.38;22.73;;;;;;;;;;5092362;28;20282;-64
2022/12/10 05:31:15;;;;;;;36.00;22.20;;;;;;;;;;5092245;28;20542;-64
2022/12/10 05:33:43;;;;;;;35.22;23.50;;;;;;;;;;5092439;28;20212;-64
2022/12/10 05:36:12;;;;;;;40.75;23.50;;;;;;;;;;5092374;28;20201;-64
2022/12/10 05:38:40;;;;;;;39.95;24.60;;;;;;;;;;5092684;28;20207;-64
2022/12/10 05:41:08;;;;;;;33.85;24.23;;;;;;;;;;5091847;28;20309;-64
2022/12/10 05:43:35;;;;;;;33.00;22.70;;;;;;;;;;5091772;28;20191;-63
2022/12/10 05:46:03;;;;;;;28.85;22.23;;;;;;;;;;5092457;28;20190;-64
2022/12/10 05:48:30;;;;;;;39.90;23.23;;;;;;;;;;5091797;28;20214;-64
2022/12/10 05:50:57;;;;;;;34.53;23.65;;;;;;;;;;5085451;28;20199;-64
2022/12/10 05:53:26;;;;;;;34.92;23.60;;;;;;;;;;5071582;28;20199;-64
2022/12/10 05:56:01;;;;;;;43.80;26.10;;;;;;;;;;5072475;28;20316;-63
2022/12/10 05:58:28;;;;;;;34.65;22.95;;;;;;;;;;5072021;28;20185;-64
2022/12/10 06:00:56;;;;;;;31.77;23.80;;;;;;;;;;5072265;28;20225;-63
2022/12/10 06:03:23;;;;;;;37.30;25.30;;;;;;;;;;5071638;28;20199;-63
2022/12/10 06:05:50;;;;;;;38.05;24.60;;;;;;;;;;5075496;28;20206;-64
2022/12/10 06:08:17;;;;;;;40.05;24.52;;;;;;;;;;5075636;28;20215;-64
2022/12/10 06:10:46;;;;;;;33.65;23.90;;;;;;;;;;5075472;28;20211;-64
2022/12/10 06:13:13;;;;;;;34.45;24.30;;;;;;;;;;5075368;28;20290;-64
2022/12/10 06:15:40;;;;;;;35.70;23.60;;;;;;;;;;5075490;28;20673;-63
2022/12/10 06:18:08;;;;;;;38.45;25.65;;;;;;;;;;5075258;28;20195;-64
2022/12/10 06:20:35;;;;;;;37.08;24.40;;;;;;;;;;5075084;28;20231;-64
2022/12/10 06:23:02;;;;;;;44.80;27.77;;;;;;;;;;5075819;28;20249;-64
2022/12/10 06:25:30;;;;;;;42.50;27.58;;;;;;;;;;5075401;28;20206;-64
2022/12/10 06:27:58;;;;;;;42.58;28.20;;;;;;;;;;5075295;28;20191;-64
2022/12/10 06:30:25;;;;;;;41.45;25.90;;;;;;;;;;5074902;28;20745;-64
2022/12/10 06:32:52;;;;;;;36.20;24.35;;;;;;;;;;5075032;28;20477;-64
2022/12/10 06:35:20;;;;;;;43.90;29.23;;;;;;;;;;5075432;28;20206;-65
2022/12/10 06:37:47;;;;;;;41.30;27.60;;;;;;;;;;5075393;28;20196;-64
2022/12/10 06:40:14;;;;;;;45.10;27.10;;;;;;;;;;5075171;28;20291;-64
2022/12/10 06:42:41;;;;;;;37.78;26.60;;;;;;;;;;5074664;28;20231;-65
2022/12/10 06:45:10;;;;;;;44.28;27.77;;;;;;;;;;5074622;28;20193;-64
2022/12/10 06:47:38;;;;;;;44.33;27.48;;;;;;;;;;5075305;28;20527;-64
2022/12/10 06:50:05;;;;;;;44.53;26.58;;;;;;;;;;5075272;28;20282;-65
2022/12/10 06:52:32;;;;;;;41.10;27.40;;;;;;;;;;5075403;28;20207;-64
2022/12/10 06:55:00;;;;;;;48.05;26.95;;;;;;;;;;5075339;28;20192;-64
2022/12/10 06:57:27;;;;;;;38.15;25.17;;;;;;;;;;5075412;28;20197;-64
2022/12/10 06:59:54;;;;;;;38.25;25.45;;;;;;;;;;5075409;28;20202;-64
2022/12/10 07:02:22;;;;;;;35.58;25.17;;;;;;;;;;5075008;28;20219;-64
2022/12/10 07:04:50;;;;;;;49.03;28.27;;;;;;;;;;5075154;28;20282;-64
2022/12/10 07:07:17;;;;;;;41.75;28.25;;;;;;;;;;5075232;28;20207;-64
2022/12/10 07:09:44;;;;;;;40.83;26.88;;;;;;;;;;5074705;28;20200;-64
2022/12/10 07:12:11;;;;;;;45.08;27.25;;;;;;;;;;5075465;28;20202;-64
2022/12/10 07:14:38;;;;;;;46.08;28.25;;;;;;;;;;5074969;28;20527;-64
2022/12/10 07:17:06;;;;;;;44.75;30.17;;;;;;;;;;5074243;28;20196;-64
2022/12/10 07:19:34;;;;;;;43.40;28.52;;;;;;;;;;5074568;28;20195;-64
2022/12/10 07:22:01;;;;;;;40.70;26.92;;;;;;;;;;5074855;28;20220;-64
2022/12/10 07:24:29;;;;;;;43.10;27.30;;;;;;;;;;5074813;28;20192;-64
2022/12/10 07:26:56;;;;;;;43.13;27.58;;;;;;;;;;5074534;28;20743;-64
2022/12/10 07:29:23;;;;;;;43.53;27.08;;;;;;;;;;5074793;28;20199;-64
2022/12/10 07:31:51;;;;;;;39.75;26.27;;;;;;;;;;5074672;28;20230;-64
2022/12/10 07:34:18;;;;;;;44.40;25.98;;;;;;;;;;5074258;28;20754;-64
2022/12/10 07:36:46;;;;;;;38.00;26.23;;;;;;;;;;5074245;28;20197;-64
2022/12/10 07:39:17;;;;;;;42.88;26.65;;;;;;;;;;5074428;28;20201;-63
2022/12/10 07:41:44;;;;;;;41.67;25.90;;;;;;;;;;5074116;28;20245;-64
2022/12/10 07:44:12;;;;;;;43.00;25.73;;;;;;;;;;5073369;28;20660;-64
2022/12/10 07:46:39;;;;;;;40.88;24.45;;;;;;;;;;5074186;28;20194;-64
2022/12/10 07:49:06;;;;;;;38.60;25.73;;;;;;;;;;5074072;28;20587;-64
2022/12/10 07:51:33;;;;;;;41.05;25.85;;;;;;;;;;5074210;28;20202;-64
2022/12/10 07:54:02;;;;;;;38.42;24.90;;;;;;;;;;5074302;28;20289;-64
2022/12/10 07:56:29;;;;;;;40.42;24.52;;;;;;;;;;5073852;28;20649;-64
2022/12/10 07:58:56;;;;;;;41.90;23.50;;;;;;;;;;5073925;28;20196;-64
2022/12/10 08:01:25;;;;;;;39.35;25.13;;;;;;;;;;5073556;28;20305;-65
2022/12/10 08:03:52;;;;;;;40.35;25.75;;;;;;;;;;5073054;28;20670;-64
2022/12/10 08:06:21;;;;;;;36.72;25.73;;;;;;;;;;5073160;28;20554;-64
2022/12/10 08:08:48;;;;;;;43.15;26.35;;;;;;;;;;5073782;28;20289;-64
2022/12/10 08:11:18;;;;;;;40.38;23.63;;;;;;;;;;5073349;28;20205;-64
2022/12/10 08:13:45;;;;;;;39.60;24.48;;;;;;;;;;5083904;28;20280;-64
2022/12/10 08:16:13;;;;;;;42.70;25.92;;;;;;;;;;5093587;28;20193;-64
2022/12/10 08:18:40;;;;;;;47.35;27.35;;;;;;;;;;5093895;28;20194;-64
2022/12/10 08:21:08;;;;;;;41.15;26.02;;;;;;;;;;5093644;28;20215;-64
2022/12/10 08:23:36;;;;;;;39.13;26.05;;;;;;;;;;5093405;28;20194;-64
2022/12/10 08:26:04;;;;;;;41.17;25.45;;;;;;;;;;5093418;28;20202;-64
2022/12/10 08:28:33;;;;;;;35.97;23.13;;;;;;;;;;5093015;28;20198;-65
2022/12/10 08:31:00;;;;;;;41.03;25.05;;;;;;;;;;5093143;28;20194;-64
2022/12/10 08:33:27;;;;;;;44.72;27.05;;;;;;;;;;5093583;28;20193;-64
2022/12/10 08:35:59;;;;;;;44.63;27.98;;;;;;;;;;5093328;28;20198;-64
2022/12/10 08:38:26;;;;;;;42.53;25.33;;;;;;;;;;5093541;28;20186;-64
2022/12/10 08:40:53;;;;;;;44.20;26.60;;;;;;;;;;5093484;28;20201;-64
2022/12/10 08:43:20;;;;;;;44.08;27.60;;;;;;;;;;5093345;28;20222;-65
2022/12/10 08:45:49;;;;;;;46.10;26.55;;;;;;;;;;5092998;28;20194;-64
2022/12/10 08:48:16;;;;;;;40.97;27.02;;;;;;;;;;5093480;28;20197;-65
2022/12/10 08:50:43;;;;;;;48.42;27.15;;;;;;;;;;5093074;28;20201;-64
2022/12/10 08:53:11;;;;;;;46.85;25.73;;;;;;;;;;5093108;28;20321;-64
2022/12/10 08:55:39;;;;;;;45.05;28.50;;;;;;;;;;5093009;28;20200;-64
2022/12/10 08:58:07;;;;;;;41.40;26.05;;;;;;;;;;5093009;28;20194;-64
2022/12/10 09:00:34;;;;;;;41.25;26.50;;;;;;;;;;5093337;28;20285;-65
2022/12/10 09:03:02;;;;;;;46.92;28.55;;;;;;;;;;5093232;28;20218;-64
2022/12/10 09:05:29;;;;;;;42.97;26.08;;;;;;;;;;5092825;28;20222;-64
2022/12/10 09:07:57;;;;;;;43.15;28.35;;;;;;;;;;5093527;28;20191;-66
2022/12/10 09:10:24;;;;;;;45.38;26.77;;;;;;;;;;5081766;28;20206;-65
2022/12/10 09:12:51;;;;;;;41.25;27.27;;;;;;;;;;5058237;28;20200;-65
2022/12/10 09:15:18;;;;;;;52.30;28.20;;;;;;;;;;5092874;28;20221;-64
2022/12/10 09:17:46;;;;;;;45.78;28.42;;;;;;;;;;5092457;28;20195;-64
2022/12/10 09:20:16;;;;;;;41.95;27.40;;;;;;;;;;5092825;28;20209;-64
2022/12/10 09:22:43;;;;;;;47.08;29.13;;;;;;;;;;5093082;28;20305;-65
2022/12/10 09:25:11;;;;;;;47.47;28.63;;;;;;;;;;5092801;28;20204;-65
2022/12/10 09:27:38;;;;;;;49.75;25.90;;;;;;;;;;5093067;28;20195;-64
2022/12/10 09:30:06;;;;;;;44.53;26.77;;;;;;;;;;5093039;28;20221;-64
2022/12/10 09:32:33;;;;;;;46.38;28.20;;;;;;;;;;5093080;28;20233;-64
2022/12/10 09:35:00;;;;;;;42.97;26.42;;;;;;;;;;5092576;28;20688;-64
2022/12/10 09:37:29;;;;;;;42.47;26.67;;;;;;;;;;5092834;28;20196;-65
2022/12/10 09:39:56;;;;;;;42.13;26.73;;;;;;;;;;5095072;28;20246;-65
2022/12/10 09:42:32;;;;;;;38.80;25.48;;;;;;;;;;5096803;28;20226;-64
2022/12/10 09:45:03;;;;;;;43.20;25.33;;;;;;;;;;5096682;28;20189;-65
2022/12/10 09:47:33;;;;;;;43.53;25.75;;;;;;;;;;5096637;28;20214;-64
2022/12/10 09:50:04;;;;;;;44.05;21.80;;;;;;;;;;5096442;28;20281;-64
2022/12/10 09:52:35;;;;;;;42.70;27.23;;;;;;;;;;5096681;28;20187;-64
2022/12/10 09:55:03;;;;;;;37.80;25.15;;;;;;;;;;5096700;28;20193;-63
2022/12/10 09:57:31;;;;;;;43.10;25.10;;;;;;;;;;5096435;28;20194;-64
2022/12/10 10:00:00;;;;;;;31.85;21.00;;;;;;;;;;5097003;28;20202;-64
2022/12/10 10:02:30;;;;;;;33.78;21.25;;;;;;;;;;5096628;28;20244;-64
2022/12/10 10:05:00;;;;;;;30.58;20.25;;;;;;;;;;5096172;28;20526;-64
2022/12/10 10:07:30;;;;;;;34.78;21.77;;;;;;;;;;5096246;28;20643;-64
2022/12/10 10:10:01;;;;;;;32.65;21.05;;;;;;;;;;5095844;28;20284;-64
2022/12/10 10:12:28;;;;;;;30.70;19.65;;;;;;;;;;5095857;28;20636;-64
2022/12/10 10:14:56;;;;;;;30.00;19.33;;;;;;;;;;5096064;28;20596;-65
2022/12/10 10:17:25;;;;;;;32.15;21.20;;;;;;;;;;5096438;28;20565;-64
2022/12/10 10:19:52;;;;;;;30.67;20.98;;;;;;;;;;5095851;28;20679;-64
2022/12/10 10:22:20;;;;;;;36.15;24.02;;;;;;;;;;5095823;28;20647;-64
2022/12/10 10:24:47;;;;;;;35.03;20.55;;;;;;;;;;5095777;28;20226;-65
2022/12/10 10:27:17;;;;;;;34.13;22.40;;;;;;;;;;5096112;28;20199;-65
2022/12/10 10:29:45;;;;;;;32.08;21.33;;;;;;;;;;5096148;28;20555;-64
2022/12/10 10:32:14;;;;;;;39.97;24.25;;;;;;;;;;5095745;28;20298;-64
2022/12/10 10:34:41;;;;;;;36.25;23.65;;;;;;;;;;5095971;28;20206;-64
2022/12/10 10:37:08;;;;;;;39.47;24.15;;;;;;;;;;5095245;28;20202;-64
2022/12/10 10:39:36;;;;;;;39.38;25.45;;;;;;;;;;5095497;28;20609;-64
2022/12/10 10:42:09;;;;;;;37.80;25.60;;;;;;;;;;5095990;28;20245;-64
2022/12/10 10:44:39;;;;;;;35.72;25.48;;;;;;;;;;5095315;28;20534;-64
2022/12/10 10:47:25;;;;;;;41.17;26.25;;;;;;;;;;5095650;28;20209;-64
2022/12/10 10:49:53;;;;;;;44.83;26.58;;;;;;;;;;5095130;28;20286;-65
2022/12/10 10:52:21;;;;;;;39.60;25.67;;;;;;;;;;5093575;28;20206;-64
2022/12/10 10:54:48;;;;;;;38.88;27.05;;;;;;;;;;5095096;28;20665;-64
2022/12/10 10:57:18;;;;;;;38.17;25.75;;;;;;;;;;5095272;28;20196;-64
2022/12/10 10:59:47;;;;;;;41.03;26.15;;;;;;;;;;5095661;28;20201;-64
2022/12/10 11:02:20;;;;;;;37.85;25.85;;;;;;;;;;5094869;28;20695;-64
2022/12/10 11:04:48;;;;;;;42.53;27.05;;;;;;;;;;5095054;28;20231;-64
2022/12/10 11:07:18;;;;;;;43.60;26.83;;;;;;;;;;5095262;28;20194;-64
2022/12/10 11:09:46;;;;;;;43.65;27.33;;;;;;;;;;5094916;28;20194;-64
2022/12/10 11:12:24;;;;;;;43.40;26.10;;;;;;;;;;5095272;28;20202;-64
2022/12/10 11:14:53;;;;;;;46.60;28.00;;;;;;;;;;5095052;28;20273;-67
2022/12/10 11:17:21;;;;;;;47.15;26.77;;;;;;;;;;5094663;28;20752;-64
2022/12/10 11:19:56;;;;;;;48.10;28.23;;;;;;;;;;5095396;28;20213;-65
2022/12/10 11:22:24;;;;;;;42.63;28.75;;;;;;;;;;5094610;28;20206;-64
2022/12/10 11:24:51;;;;;;;41.00;27.02;;;;;;;;;;5094267;28;20205;-65
2022/12/10 11:27:24;;;;;;;49.55;27.90;;;;;;;;;;5094463;28;20195;-65
2022/12/10 11:29:59;;;;;;;44.03;28.27;;;;;;;;;;5094543;28;20248;-66
2022/12/10 11:32:40;;;;;;;48.75;29.17;;;;;;;;;;5094717;28;20226;-64
2022/12/10 11:35:13;;;;;;;46.20;29.15;;;;;;;;;;5094540;28;20187;-64
2022/12/10 11:37:45;;;;;;;50.45;31.63;;;;;;;;;;5095288;28;20511;-63
2022/12/10 11:40:29;;;;;;;44.00;27.55;;;;;;;;;;5095195;28;20529;-64
2022/12/10 11:43:02;;;;;;;51.00;30.60;;;;;;;;;;5094833;28;20235;-64
2022/12/10 11:45:35;;;;;;;48.10;30.38;;;;;;;;;;5095076;28;20539;-64
2022/12/10 11:48:11;;;;;;;51.60;29.63;;;;;;;;;;5094248;28;20183;-64
2022/12/10 11:50:42;;;;;;;53.25;30.98;;;;;;;;;;5095127;28;20189;-63
2022/12/10 11:53:16;;;;;;;52.15;29.63;;;;;;;;;;5094431;28;20200;-64
2022/12/10 11:55:48;;;;;;;58.17;33.90;;;;;;;;;;5094343;28;20639;-64
2022/12/10 11:58:27;;;;;;;54.78;33.78;;;;;;;;;;5094391;28;20188;-64
2022/12/10 12:01:00;;;;;;;62.05;32.42;;;;;;;;;;5094741;28;20291;-64
2022/12/10 12:03:45;;;;;;;66.53;33.45;;;;;;;;;;5094012;28;20219;-64
2022/12/10 12:06:21;;;;;;;69.57;35.97;;;;;;;;;;5094864;28;20265;-64
2022/12/10 12:08:52;;;;;;;65.15;36.10;;;;;;;;;;5094332;28;20192;-64
2022/12/10 12:11:24;;;;;;;63.28;34.70;;;;;;;;;;5094086;28;20196;-63
2022/12/10 12:13:56;;;;;;;72.35;36.60;;;;;;;;;;5094365;28;20207;-64
2022/12/10 12:16:27;;;;;;;75.00;35.47;;;;;;;;;;5094452;28;20197;-63
2022/12/10 12:18:57;;;;;;;65.47;34.90;;;;;;;;;;5094518;28;20191;-64
2022/12/10 12:21:24;;;;;;;64.90;35.85;;;;;;;;;;5094030;28;20238;-64
2022/12/10 12:23:53;;;;;;;66.85;35.78;;;;;;;;;;5093483;28;20250;-64
2022/12/10 12:26:23;;;;;;;71.88;35.55;;;;;;;;;;5093771;28;20203;-64
2022/12/10 12:28:54;;;;;;;66.38;35.50;;;;;;;;;;5093647;28;20190;-64
2022/12/10 12:31:22;;;;;;;74.88;39.05;;;;;;;;;;5094023;28;20190;-64
2022/12/10 12:33:55;;;;;;;70.55;40.20;;;;;;;;;;5093839;28;20271;-65
2022/12/10 12:36:23;;;;;;;70.97;35.58;;;;;;;;;;5094488;28;20271;-64
2022/12/10 12:38:53;;;;;;;71.28;39.42;;;;;;;;;;5093784;28;20204;-64
2022/12/10 12:41:26;;;;;;;70.00;37.25;;;;;;;;;;5094389;28;20202;-64
2022/12/10 12:43:55;;;;;;;82.38;42.90;;;;;;;;;;5093920;28;20208;-64
2022/12/10 12:46:28;;;;;;;76.97;39.95;;;;;;;;;;5093705;28;20221;-64
2022/12/10 12:48:58;;;;;;;68.95;37.05;;;;;;;;;;5093687;28;20193;-64
2022/12/10 12:51:28;;;;;;;74.95;39.45;;;;;;;;;;5094116;28;20221;-65
2022/12/10 12:53:56;;;;;;;78.45;39.15;;;;;;;;;;5093723;28;20564;-64
2022/12/10 12:56:26;;;;;;;64.72;37.10;;;;;;;;;;5093345;28;20286;-65
2022/12/10 12:59:00;;;;;;;69.68;38.08;;;;;;;;;;5093212;28;20199;-64
2022/12/10 13:01:30;;;;;;;66.93;38.20;;;;;;;;;;5093631;28;20513;-64
2022/12/10 13:03:59;;;;;;;67.45;39.88;;;;;;;;;;5093502;28;20314;-65
2022/12/10 13:06:28;;;;;;;70.88;39.15;;;;;;;;;;5093397;28;20244;-65
2022/12/10 13:08:59;;;;;;;73.93;39.05;;;;;;;;;;5093188;28;20207;-65
2022/12/10 13:11:33;;;;;;;64.70;37.13;;;;;;;;;;5093597;28;20250;-64
2022/12/10 13:14:15;;;;;;;65.93;37.10;;;;;;;;;;5092697;28;20602;-64
2022/12/10 13:16:50;;;;;;;67.25;33.55;;;;;;;;;;5092967;28;20247;-65
2022/12/10 13:19:26;;;;;;;65.15;32.95;;;;;;;;;;5093313;28;20195;-64
2022/12/10 13:22:01;;;;;;;61.92;31.65;;;;;;;;;;5093460;28;20549;-64
2022/12/10 13:24:43;;;;;;;68.07;33.05;;;;;;;;;;5093160;28;20220;-64
2022/12/10 13:27:17;;;;;;;57.47;33.95;;;;;;;;;;5081137;28;20185;-65
2022/12/10 13:29:46;;;;;;;66.05;36.53;;;;;;;;;;5072924;28;20197;-65
2022/12/10 13:32:15;;;;;;;68.60;36.95;;;;;;;;;;5072922;28;20651;-64
2022/12/10 13:34:44;;;;;;;64.88;35.50;;;;;;;;;;5072598;28;20675;-64
2022/12/10 13:37:16;;;;;;;64.65;33.70;;;;;;;;;;5072943;28;20201;-64
2022/12/10 13:39:47;;;;;;;67.55;33.45;;;;;;;;;;5072534;28;20191;-64
2022/12/10 13:45:32;;;;;;;69.20;37.20;;;;;;;;;;5071371;28;20555;-65
2022/12/10 13:48:19;;;;;;;60.08;32.13;;;;;;;;;;5071922;28;20196;-64
2022/12/10 13:50:50;;;;;;;77.88;35.53;;;;;;;;;;5072248;28;20204;-64
2022/12/10 13:53:21;;;;;;;72.45;35.75;;;;;;;;;;5071725;28;20200;-64
2022/12/10 13:55:54;;;;;;;62.20;36.00;;;;;;;;;;5072146;28;20654;-64
2022/12/10 13:58:28;;;;;;;62.70;34.22;;;;;;;;;;5072314;28;20654;-64
2022/12/10 14:00:59;;;;;;;73.63;34.85;;;;;;;;;;5072294;28;20645;-65
2022/12/10 14:03:53;;;;;;;66.15;35.83;;;;;;;;;;5072234;28;20216;-64
2022/12/10 14:06:22;;;;;;;73.88;36.00;;;;;;;;;;5072370;28;20191;-64
2022/12/10 14:08:57;;;;;;;66.72;35.63;;;;;;;;;;5072526;28;20203;-64
2022/12/10 14:11:27;;;;;;;70.20;36.60;;;;;;;;;;5072280;28;20217;-64
2022/12/10 14:13:57;;;;;;;68.80;33.88;;;;;;;;;;5071987;28;20256;-64
2022/12/10 14:16:25;;;;;;;71.20;34.83;;;;;;;;;;5072602;28;20250;-64
2022/12/10 14:18:54;;;;;;;78.30;35.42;;;;;;;;;;5072550;28;20194;-64
2022/12/10 14:21:24;;;;;;;68.50;35.97;;;;;;;;;;5071830;28;20731;-64
2022/12/10 14:23:52;;;;;;;65.63;34.75;;;;;;;;;;5071713;28;20227;-64
2022/12/10 14:26:20;;;;;;;64.80;33.25;;;;;;;;;;5074344;28;20195;-64
2022/12/10 14:28:48;;;;;;;63.53;33.22;;;;;;;;;;5075603;28;20202;-64
2022/12/10 14:31:17;;;;;;;70.22;36.90;;;;;;;;;;5075727;28;20218;-64
2022/12/10 14:33:45;;;;;;;70.70;38.10;;;;;;;;;;5075097;28;20208;-65
2022/12/10 14:36:17;;;;;;;72.75;37.03;;;;;;;;;;5076134;28;20206;-64
2022/12/10 14:38:47;;;;;;;64.32;33.17;;;;;;;;;;5075510;28;20194;-65